Time;durP1;ratioP1;P1;durP2;ratioP2;P2;SDS_P1;SDS_P2;PMS_P1;PMS_P2;Temp;Humidity;BMP_temperature;BMP_pressure;BME280_temperature;BME280_humidity;BME280_pressure;Samples;Min_cycle;Max_cycle;Signal;HPM_P1;HPM_P2
2021/03/16 00:00:57;;;;;;;2.38;1.58;;;;;;;;;;5071995;28;20028;-65
2021/03/16 00:03:23;;;;;;;1.98;1.52;;;;;;;;;;5071667;28;20024;-65
2021/03/16 00:05:49;;;;;;;2.03;1.40;;;;;;;;;;5072654;28;20071;-65
2021/03/16 00:08:15;;;;;;;1.63;1.40;;;;;;;;;;5071810;28;20025;-66
2021/03/16 00:10:41;;;;;;;2.17;1.30;;;;;;;;;;5071850;28;20029;-65
2021/03/16 00:13:07;;;;;;;2.10;1.75;;;;;;;;;;5070287;28;20200;-65
2021/03/16 00:15:34;;;;;;;3.05;2.60;;;;;;;;;;5072261;28;20035;-65
2021/03/16 00:18:02;;;;;;;2.92;1.48;;;;;;;;;;5071948;28;20033;-65
2021/03/16 00:20:28;;;;;;;2.17;1.30;;;;;;;;;;5071710;28;20060;-65
2021/03/16 00:22:54;;;;;;;2.17;1.70;;;;;;;;;;5071946;28;20043;-65
2021/03/16 00:25:20;;;;;;;1.00;1.00;;;;;;;;;;5071361;28;20120;-65
2021/03/16 00:27:46;;;;;;;1.27;1.08;;;;;;;;;;5072051;28;20029;-65
2021/03/16 00:30:12;;;;;;;0.93;0.93;;;;;;;;;;5071009;28;20445;-65
2021/03/16 00:32:39;;;;;;;1.40;1.30;;;;;;;;;;5071495;28;20044;-65
2021/03/16 00:35:05;;;;;;;1.25;1.20;;;;;;;;;;5071178;28;20060;-65
2021/03/16 00:37:31;;;;;;;3.20;1.77;;;;;;;;;;5077562;28;20106;-65
2021/03/16 00:39:57;;;;;;;2.72;1.02;;;;;;;;;;5091505;28;20124;-65
2021/03/16 00:42:23;;;;;;;2.55;1.33;;;;;;;;;;5091030;28;20057;-65
2021/03/16 00:44:49;;;;;;;1.60;1.50;;;;;;;;;;5091869;28;20020;-65
2021/03/16 00:47:16;;;;;;;2.13;1.48;;;;;;;;;;5091139;28;20212;-65
2021/03/16 00:49:42;;;;;;;1.17;1.08;;;;;;;;;;5091803;28;20031;-65
2021/03/16 00:52:08;;;;;;;2.00;1.45;;;;;;;;;;5091303;28;20042;-65
2021/03/16 00:54:34;;;;;;;2.47;1.40;;;;;;;;;;5091922;28;20158;-65
2021/03/16 00:57:00;;;;;;;1.42;1.23;;;;;;;;;;5091730;28;20052;-65
2021/03/16 00:59:26;;;;;;;1.83;1.73;;;;;;;;;;5090546;28;20059;-65
2021/03/16 01:01:52;;;;;;;1.42;1.33;;;;;;;;;;5091270;28;20040;-65
2021/03/16 01:04:18;;;;;;;1.45;1.35;;;;;;;;;;5090631;28;20118;-65
2021/03/16 01:06:45;;;;;;;1.13;0.93;;;;;;;;;;5091411;28;20028;-65
2021/03/16 01:09:12;;;;;;;2.72;1.67;;;;;;;;;;5090765;28;20028;-65
2021/03/16 01:11:38;;;;;;;1.23;0.80;;;;;;;;;;5091204;28;20057;-65
2021/03/16 01:14:06;;;;;;;1.33;1.17;;;;;;;;;;5086984;28;20048;-65
2021/03/16 01:16:32;;;;;;;0.80;0.80;;;;;;;;;;5071158;28;20039;-65
2021/03/16 01:18:58;;;;;;;1.80;1.25;;;;;;;;;;5071120;28;20081;-65
2021/03/16 01:21:24;;;;;;;1.30;0.82;;;;;;;;;;5070467;28;20039;-65
2021/03/16 01:23:50;;;;;;;1.50;1.25;;;;;;;;;;5071018;28;20112;-65
2021/03/16 01:26:16;;;;;;;2.45;1.48;;;;;;;;;;5070085;28;20029;-65
2021/03/16 01:28:42;;;;;;;1.13;0.98;;;;;;;;;;5070293;28;20033;-65
2021/03/16 01:31:08;;;;;;;1.50;1.00;;;;;;;;;;5069473;28;20024;-65
2021/03/16 01:33:34;;;;;;;1.13;0.85;;;;;;;;;;5070613;28;20533;-65
2021/03/16 01:36:00;;;;;;;1.33;0.80;;;;;;;;;;5070527;28;20044;-65
2021/03/16 01:38:27;;;;;;;1.58;1.27;;;;;;;;;;5070476;28;20094;-65
2021/03/16 01:40:53;;;;;;;1.10;0.98;;;;;;;;;;5070490;28;20198;-65
2021/03/16 01:43:19;;;;;;;1.08;0.73;;;;;;;;;;5069636;28;20193;-65
2021/03/16 01:45:46;;;;;;;1.45;1.15;;;;;;;;;;5070736;28;20029;-65
2021/03/16 01:48:12;;;;;;;0.47;0.47;;;;;;;;;;5069798;28;20288;-65
2021/03/16 01:50:40;;;;;;;1.27;0.75;;;;;;;;;;5070182;28;20032;-65
2021/03/16 01:53:06;;;;;;;1.48;1.20;;;;;;;;;;5069691;28;20114;-64
2021/03/16 01:55:33;;;;;;;0.98;0.95;;;;;;;;;;5070612;28;20027;-65
2021/03/16 01:57:59;;;;;;;1.60;1.50;;;;;;;;;;5070157;28;20052;-65
2021/03/16 02:00:31;;;;;;;2.38;1.25;;;;;;;;;;5089839;28;20032;-65
2021/03/16 02:02:57;;;;;;;0.80;0.80;;;;;;;;;;5090062;28;20124;-65
2021/03/16 02:05:24;;;;;;;2.50;1.15;;;;;;;;;;5089913;28;20063;-65
2021/03/16 02:07:50;;;;;;;1.92;0.82;;;;;;;;;;5089915;28;20053;-65
2021/03/16 02:10:22;;;;;;;1.27;1.08;;;;;;;;;;5089356;28;20026;-65
2021/03/16 02:13:03;;;;;;;0.50;0.50;;;;;;;;;;5089939;28;20115;-65
2021/03/16 02:15:35;;;;;;;0.85;0.57;;;;;;;;;;5090047;28;20089;-65
2021/03/16 02:18:08;;;;;;;0.60;0.60;;;;;;;;;;5090138;28;20059;-65
2021/03/16 02:20:57;;;;;;;3.22;1.17;;;;;;;;;;5090269;28;20479;-65
2021/03/16 02:23:27;;;;;;;0.80;0.80;;;;;;;;;;5088919;28;20643;-65
2021/03/16 02:26:25;;;;;;;1.55;0.82;;;;;;;;;;5090322;28;20106;-65
2021/03/16 02:29:11;;;;;;;0.55;0.55;;;;;;;;;;5088655;28;20380;-65
2021/03/16 02:31:39;;;;;;;1.23;0.90;;;;;;;;;;5089823;28;20040;-65
2021/03/16 02:34:06;;;;;;;0.88;0.65;;;;;;;;;;5089114;28;20039;-65
2021/03/16 02:36:33;;;;;;;0.70;0.52;;;;;;;;;;5089059;28;20062;-65
2021/03/16 02:39:01;;;;;;;1.55;0.60;;;;;;;;;;5072069;28;20032;-65
2021/03/16 02:41:27;;;;;;;0.40;0.40;;;;;;;;;;5068982;28;20040;-65
2021/03/16 02:43:54;;;;;;;1.58;1.08;;;;;;;;;;5069815;28;20025;-65
2021/03/16 02:46:21;;;;;;;1.20;0.70;;;;;;;;;;5069143;28;20036;-65
2021/03/16 02:48:47;;;;;;;1.20;0.80;;;;;;;;;;5069767;28;20063;-65
2021/03/16 02:51:14;;;;;;;0.50;0.50;;;;;;;;;;5068307;28;20024;-65
2021/03/16 02:53:40;;;;;;;0.40;0.40;;;;;;;;;;5069348;28;20387;-65
2021/03/16 02:56:07;;;;;;;0.50;0.40;;;;;;;;;;5069119;28;20483;-65
2021/03/16 02:58:34;;;;;;;1.73;1.05;;;;;;;;;;5068906;28;20537;-65
2021/03/16 03:01:00;;;;;;;0.95;0.52;;;;;;;;;;5068789;28;20403;-65
2021/03/16 03:03:27;;;;;;;0.80;0.77;;;;;;;;;;5069292;28;20750;-65
2021/03/16 03:05:53;;;;;;;1.05;0.47;;;;;;;;;;5069649;28;20483;-65
2021/03/16 03:08:20;;;;;;;0.93;0.73;;;;;;;;;;5068595;28;20028;-65
2021/03/16 03:10:46;;;;;;;0.57;0.50;;;;;;;;;;5068486;28;20030;-65
2021/03/16 03:13:12;;;;;;;0.50;0.50;;;;;;;;;;5068881;28;20398;-65
2021/03/16 03:15:39;;;;;;;2.13;0.73;;;;;;;;;;5085839;28;20046;-65
2021/03/16 03:18:05;;;;;;;0.35;0.20;;;;;;;;;;5088776;28;20032;-65
2021/03/16 03:20:33;;;;;;;0.38;0.38;;;;;;;;;;5089147;28;20111;-65
2021/03/16 03:23:02;;;;;;;0.50;0.40;;;;;;;;;;5087470;28;20063;-65
2021/03/16 03:25:34;;;;;;;0.68;0.68;;;;;;;;;;5089409;28;20047;-65
2021/03/16 03:28:09;;;;;;;0.40;0.40;;;;;;;;;;5089043;28;20043;-65
2021/03/16 03:30:35;;;;;;;1.08;0.60;;;;;;;;;;5089116;28;20031;-65
2021/03/16 03:33:03;;;;;;;0.40;0.40;;;;;;;;;;5088725;28;20028;-64
2021/03/16 03:35:32;;;;;;;0.85;0.80;;;;;;;;;;5089389;28;20559;-65
2021/03/16 03:37:59;;;;;;;0.47;0.47;;;;;;;;;;5089396;28;20020;-64
2021/03/16 03:40:26;;;;;;;1.00;0.90;;;;;;;;;;5088663;28;20020;-65
2021/03/16 03:42:57;;;;;;;1.17;0.50;;;;;;;;;;5088944;28;20036;-65
2021/03/16 03:45:24;;;;;;;1.92;0.40;;;;;;;;;;5088563;28;20020;-65
2021/03/16 03:47:50;;;;;;;0.45;0.45;;;;;;;;;;5090275;28;20040;-65
2021/03/16 03:50:17;;;;;;;0.28;0.28;;;;;;;;;;5091702;28;20028;-65
2021/03/16 03:52:44;;;;;;;0.57;0.30;;;;;;;;;;5092340;28;20036;-65
2021/03/16 03:55:11;;;;;;;0.55;0.40;;;;;;;;;;5092108;28;20060;-65
2021/03/16 03:57:39;;;;;;;0.25;0.25;;;;;;;;;;5092424;28;20039;-65
2021/03/16 04:00:06;;;;;;;1.33;0.70;;;;;;;;;;5073287;28;20036;-65
2021/03/16 04:02:32;;;;;;;0.52;0.30;;;;;;;;;;5071951;28;20508;-65
2021/03/16 04:04:58;;;;;;;0.20;0.20;;;;;;;;;;5072237;28;20032;-65
2021/03/16 04:07:27;;;;;;;0.28;0.28;;;;;;;;;;5072133;28;20494;-65
2021/03/16 04:09:56;;;;;;;0.60;0.32;;;;;;;;;;5072061;28;20024;-65
2021/03/16 04:12:22;;;;;;;0.30;0.28;;;;;;;;;;5071513;28;20034;-65
2021/03/16 04:14:48;;;;;;;1.13;0.30;;;;;;;;;;5072605;28;20501;-65
2021/03/16 04:17:14;;;;;;;0.63;0.63;;;;;;;;;;5071727;28;20154;-65
2021/03/16 04:19:41;;;;;;;0.30;0.30;;;;;;;;;;5071987;28;20021;-65
2021/03/16 04:22:07;;;;;;;0.30;0.30;;;;;;;;;;5071334;28;20055;-65
2021/03/16 04:24:34;;;;;;;0.35;0.30;;;;;;;;;;5072298;28;20282;-65
2021/03/16 04:27:00;;;;;;;0.20;0.20;;;;;;;;;;5071976;28;20041;-65
2021/03/16 04:29:26;;;;;;;1.02;0.30;;;;;;;;;;5071749;28;20024;-65
2021/03/16 04:31:52;;;;;;;0.57;0.43;;;;;;;;;;5071644;28;20050;-64
2021/03/16 04:34:18;;;;;;;0.50;0.50;;;;;;;;;;5071358;28;20075;-64
2021/03/16 04:36:44;;;;;;;0.30;0.30;;;;;;;;;;5071843;28;20056;-65
2021/03/16 04:39:10;;;;;;;0.65;0.30;;;;;;;;;;5090475;28;20463;-65
2021/03/16 04:41:36;;;;;;;0.73;0.40;;;;;;;;;;5091884;28;20454;-65
2021/03/16 04:44:02;;;;;;;0.45;0.45;;;;;;;;;;5091423;28;20056;-65
2021/03/16 04:46:28;;;;;;;0.28;0.22;;;;;;;;;;5091979;28;20031;-64
2021/03/16 04:48:54;;;;;;;0.30;0.30;;;;;;;;;;5091792;28;20031;-65
2021/03/16 04:51:20;;;;;;;0.47;0.30;;;;;;;;;;5090837;28;20031;-64
2021/03/16 04:53:47;;;;;;;0.43;0.40;;;;;;;;;;5091497;28;20061;-65
2021/03/16 04:56:13;;;;;;;0.90;0.43;;;;;;;;;;5090964;28;20093;-64
2021/03/16 04:58:39;;;;;;;0.40;0.40;;;;;;;;;;5091238;28;20052;-65
2021/03/16 05:01:05;;;;;;;1.15;0.95;;;;;;;;;;5090518;28;20024;-64
2021/03/16 05:03:31;;;;;;;2.60;0.80;;;;;;;;;;5091292;28;20043;-65
2021/03/16 05:05:57;;;;;;;0.30;0.30;;;;;;;;;;5091700;28;20047;-65
2021/03/16 05:08:23;;;;;;;0.30;0.20;;;;;;;;;;5091449;28;20032;-65
2021/03/16 05:10:50;;;;;;;0.15;0.15;;;;;;;;;;5091411;28;20501;-65
2021/03/16 05:13:16;;;;;;;0.73;0.60;;;;;;;;;;5090464;28;20161;-64
2021/03/16 05:15:42;;;;;;;0.40;0.40;;;;;;;;;;5074577;28;20035;-65
2021/03/16 05:18:08;;;;;;;0.57;0.47;;;;;;;;;;5070454;28;20136;-65
2021/03/16 05:20:34;;;;;;;0.38;0.38;;;;;;;;;;5070661;28;20071;-65
2021/03/16 05:23:00;;;;;;;0.43;0.43;;;;;;;;;;5070631;28;20033;-64
2021/03/16 05:25:26;;;;;;;0.40;0.40;;;;;;;;;;5070919;28;20479;-65
2021/03/16 05:27:52;;;;;;;0.60;0.60;;;;;;;;;;5070791;28;20039;-65
2021/03/16 05:30:18;;;;;;;0.70;0.43;;;;;;;;;;5070212;28;20097;-65
2021/03/16 05:32:44;;;;;;;0.20;0.20;;;;;;;;;;5070770;28;20025;-65
2021/03/16 05:35:11;;;;;;;1.20;0.30;;;;;;;;;;5069875;28;20479;-64
2021/03/16 05:37:37;;;;;;;0.55;0.52;;;;;;;;;;5070523;28;20043;-65
2021/03/16 05:40:04;;;;;;;0.32;0.32;;;;;;;;;;5070327;28;20035;-64
2021/03/16 05:42:30;;;;;;;1.08;0.88;;;;;;;;;;5070285;28;20055;-65
2021/03/16 05:44:58;;;;;;;1.17;0.40;;;;;;;;;;5070578;28;20020;-65
2021/03/16 05:47:26;;;;;;;0.82;0.30;;;;;;;;;;5070294;28;20467;-65
2021/03/16 05:49:53;;;;;;;0.68;0.30;;;;;;;;;;5070065;28;20035;-65
2021/03/16 05:52:19;;;;;;;0.20;0.20;;;;;;;;;;5069758;28;20071;-65
2021/03/16 05:54:45;;;;;;;0.45;0.45;;;;;;;;;;5070414;28;20028;-65
2021/03/16 05:57:12;;;;;;;0.43;0.43;;;;;;;;;;5069401;28;20024;-64
2021/03/16 05:59:38;;;;;;;1.15;0.40;;;;;;;;;;5083543;28;20129;-65
2021/03/16 06:02:04;;;;;;;0.47;0.30;;;;;;;;;;5089895;28;20394;-64
2021/03/16 06:04:30;;;;;;;0.35;0.30;;;;;;;;;;5090387;28;20518;-65
2021/03/16 06:06:56;;;;;;;0.75;0.65;;;;;;;;;;5090576;28;20467;-65
2021/03/16 06:09:23;;;;;;;1.35;0.43;;;;;;;;;;5089757;28;20024;-65
2021/03/16 06:11:51;;;;;;;0.30;0.30;;;;;;;;;;5090167;28;20101;-65
2021/03/16 06:14:17;;;;;;;1.08;0.30;;;;;;;;;;5089631;28;20486;-65
2021/03/16 06:16:44;;;;;;;0.20;0.20;;;;;;;;;;5090568;28;20024;-65
2021/03/16 06:19:10;;;;;;;0.30;0.30;;;;;;;;;;5089986;28;20024;-65
2021/03/16 06:21:36;;;;;;;0.35;0.35;;;;;;;;;;5090034;28;20039;-65
2021/03/16 06:24:02;;;;;;;0.22;0.20;;;;;;;;;;5089460;28;20028;-65
2021/03/16 06:26:30;;;;;;;0.28;0.20;;;;;;;;;;5090112;28;20028;-65
2021/03/16 06:29:06;;;;;;;0.73;0.47;;;;;;;;;;5089947;28;20028;-65
2021/03/16 06:31:32;;;;;;;0.40;0.40;;;;;;;;;;5089883;28;20036;-65
2021/03/16 06:33:58;;;;;;;1.08;0.30;;;;;;;;;;5089956;28;20108;-65
2021/03/16 06:36:26;;;;;;;0.57;0.57;;;;;;;;;;5089823;28;20028;-65
2021/03/16 06:38:52;;;;;;;0.30;0.28;;;;;;;;;;5072961;28;20070;-65
2021/03/16 06:41:19;;;;;;;0.45;0.22;;;;;;;;;;5068768;28;20567;-65
2021/03/16 06:43:56;;;;;;;0.60;0.40;;;;;;;;;;5069714;28;20029;-65
2021/03/16 06:46:29;;;;;;;0.52;0.40;;;;;;;;;;5075029;28;20023;-65
2021/03/16 06:48:55;;;;;;;1.08;0.70;;;;;;;;;;5089464;28;20031;-65
2021/03/16 06:51:25;;;;;;;0.43;0.30;;;;;;;;;;5080772;28;20086;-65
2021/03/16 06:53:51;;;;;;;0.73;0.47;;;;;;;;;;5074430;28;20556;-65
2021/03/16 06:56:27;;;;;;;0.63;0.38;;;;;;;;;;5064124;28;20020;-64
2021/03/16 06:58:53;;;;;;;0.60;0.60;;;;;;;;;;5073506;28;20493;-64
2021/03/16 07:01:20;;;;;;;2.03;0.98;;;;;;;;;;5077299;28;20123;-65
2021/03/16 07:03:47;;;;;;;0.55;0.55;;;;;;;;;;5080294;28;20032;-65
2021/03/16 07:06:13;;;;;;;0.40;0.40;;;;;;;;;;5084205;28;20111;-64
2021/03/16 07:08:40;;;;;;;0.60;0.52;;;;;;;;;;5082750;28;20032;-64
2021/03/16 07:11:07;;;;;;;1.75;0.50;;;;;;;;;;5067549;28;20032;-64
2021/03/16 07:13:34;;;;;;;0.60;0.60;;;;;;;;;;5068467;28;20475;-64
2021/03/16 07:16:04;;;;;;;0.50;0.50;;;;;;;;;;5068506;28;20111;-64
2021/03/16 07:18:33;;;;;;;0.30;0.30;;;;;;;;;;5076475;28;20115;-64
2021/03/16 07:21:02;;;;;;;0.85;0.68;;;;;;;;;;5072986;28;20024;-64
2021/03/16 07:23:29;;;;;;;0.73;0.50;;;;;;;;;;5089641;28;20074;-64
2021/03/16 07:25:55;;;;;;;1.73;0.52;;;;;;;;;;5074789;28;20056;-64
2021/03/16 07:28:21;;;;;;;1.00;0.80;;;;;;;;;;5081584;28;20489;-64
2021/03/16 07:30:48;;;;;;;2.53;0.85;;;;;;;;;;5067532;28;20047;-65
2021/03/16 07:33:14;;;;;;;0.60;0.60;;;;;;;;;;5082440;28;20095;-64
2021/03/16 07:35:43;;;;;;;2.13;0.43;;;;;;;;;;5085541;28;20064;-64
2021/03/16 07:38:10;;;;;;;0.57;0.57;;;;;;;;;;5078700;28;20448;-64
2021/03/16 07:40:39;;;;;;;1.08;0.98;;;;;;;;;;5074425;28;20027;-64
2021/03/16 07:43:09;;;;;;;1.40;0.75;;;;;;;;;;5077206;28;20119;-64
2021/03/16 07:45:35;;;;;;;3.35;0.82;;;;;;;;;;5082038;28;20085;-64
2021/03/16 07:48:01;;;;;;;3.30;0.90;;;;;;;;;;5078186;28;20035;-64
2021/03/16 07:50:32;;;;;;;1.45;1.08;;;;;;;;;;5076309;28;20036;-65
2021/03/16 07:52:58;;;;;;;2.30;1.25;;;;;;;;;;5072019;28;20043;-64
2021/03/16 07:55:25;;;;;;;1.85;1.10;;;;;;;;;;5073310;28;20043;-64
2021/03/16 07:57:51;;;;;;;1.35;0.85;;;;;;;;;;5070593;28;20032;-66
2021/03/16 08:00:28;;;;;;;1.52;1.42;;;;;;;;;;5072088;28;20040;-65
2021/03/16 08:02:58;;;;;;;0.70;0.70;;;;;;;;;;5072887;28;20036;-65
2021/03/16 08:05:25;;;;;;;2.83;1.35;;;;;;;;;;5072416;28;20078;-66
2021/03/16 08:07:51;;;;;;;2.65;1.48;;;;;;;;;;5071075;28;20039;-65
2021/03/16 08:10:28;;;;;;;2.05;1.65;;;;;;;;;;5071200;28;20039;-65
2021/03/16 08:13:04;;;;;;;1.73;1.10;;;;;;;;;;5077596;28;20111;-65
2021/03/16 08:15:40;;;;;;;1.50;1.40;;;;;;;;;;5079225;28;20089;-65
2021/03/16 08:18:07;;;;;;;1.40;1.30;;;;;;;;;;5073363;28;20037;-65
2021/03/16 08:20:33;;;;;;;2.35;2.15;;;;;;;;;;5073443;28;20020;-68
2021/03/16 08:23:17;;;;;;;1.52;1.17;;;;;;;;;;5076275;28;20040;-67
2021/03/16 08:25:44;;;;;;;3.33;1.40;;;;;;;;;;5075690;28;20032;-65
2021/03/16 08:28:16;;;;;;;2.00;1.40;;;;;;;;;;5073912;28;20029;-65
2021/03/16 08:30:42;;;;;;;3.08;1.23;;;;;;;;;;5071304;28;20046;-65
2021/03/16 08:33:12;;;;;;;2.70;1.90;;;;;;;;;;5072771;28;20033;-64
2021/03/16 08:35:40;;;;;;;1.52;1.25;;;;;;;;;;5073568;28;20027;-65
2021/03/16 08:38:07;;;;;;;3.28;1.15;;;;;;;;;;5065623;28;20044;-65
2021/03/16 08:40:33;;;;;;;3.65;1.40;;;;;;;;;;5071597;28;20539;-65
2021/03/16 08:43:00;;;;;;;2.47;1.95;;;;;;;;;;5070535;28;20036;-64
2021/03/16 08:45:30;;;;;;;1.83;1.50;;;;;;;;;;5069771;28;20039;-65
2021/03/16 08:47:56;;;;;;;2.42;1.60;;;;;;;;;;5072443;28;20032;-64
2021/03/16 08:50:26;;;;;;;2.67;1.10;;;;;;;;;;5073528;28;20073;-64
2021/03/16 08:52:52;;;;;;;1.67;0.70;;;;;;;;;;5075910;28;20036;-65
2021/03/16 08:55:29;;;;;;;1.10;0.90;;;;;;;;;;5072690;28;20117;-66
2021/03/16 08:57:56;;;;;;;2.83;1.35;;;;;;;;;;5072981;28;20140;-66
2021/03/16 09:00:25;;;;;;;1.92;1.42;;;;;;;;;;5069772;28;20471;-65
2021/03/16 09:02:52;;;;;;;1.15;0.85;;;;;;;;;;5071259;28;20151;-65
2021/03/16 09:05:20;;;;;;;2.35;1.02;;;;;;;;;;5072208;28;20097;-67
2021/03/16 09:07:47;;;;;;;2.90;1.10;;;;;;;;;;5076255;28;20029;-68
2021/03/16 09:10:14;;;;;;;2.80;1.75;;;;;;;;;;5069207;28;20028;-65
2021/03/16 09:12:41;;;;;;;1.00;0.90;;;;;;;;;;5071177;28;20075;-64
2021/03/16 09:15:26;;;;;;;2.95;1.42;;;;;;;;;;5073274;28;20437;-64
2021/03/16 09:17:53;;;;;;;2.58;1.02;;;;;;;;;;5075035;28;20590;-67
2021/03/16 09:20:25;;;;;;;0.88;0.80;;;;;;;;;;5076606;28;20046;-64
2021/03/16 09:22:57;;;;;;;1.50;1.30;;;;;;;;;;5073115;28;20049;-64
2021/03/16 09:25:31;;;;;;;1.63;1.00;;;;;;;;;;5068824;28;20032;-64
2021/03/16 09:28:00;;;;;;;;;;;;;;;;;;5069080;28;20020;-64
2021/03/16 09:30:27;;;;;;;0.73;0.70;;;;;;;;;;5068133;28;19912;-64
2021/03/16 09:32:53;;;;;;;1.55;0.93;;;;;;;;;;5068530;28;20041;-65
2021/03/16 09:35:20;;;;;;;1.42;1.08;;;;;;;;;;5067420;28;20450;-64
2021/03/16 09:37:47;;;;;;;3.08;2.83;;;;;;;;;;5065520;28;20115;-66
2021/03/16 09:40:14;;;;;;;2.47;1.02;;;;;;;;;;5069504;28;20547;-65
2021/03/16 09:42:41;;;;;;;0.82;0.82;;;;;;;;;;5073857;28;20075;-64
2021/03/16 09:45:27;;;;;;;3.60;1.08;;;;;;;;;;5071038;28;20024;-64
2021/03/16 09:47:54;;;;;;;2.92;1.60;;;;;;;;;;5073644;28;20040;-64
2021/03/16 09:50:22;;;;;;;2.00;1.83;;;;;;;;;;5073552;28;20031;-65
2021/03/16 09:52:49;;;;;;;2.95;1.35;;;;;;;;;;5069980;28;20098;-64
2021/03/16 09:55:18;;;;;;;1.63;1.02;;;;;;;;;;5073182;28;20039;-64
2021/03/16 09:57:48;;;;;;;2.38;1.10;;;;;;;;;;5067924;28;20158;-65
2021/03/16 10:00:15;;;;;;;1.75;0.98;;;;;;;;;;5065617;28;20094;-68
2021/03/16 10:02:42;;;;;;;1.02;0.90;;;;;;;;;;5068309;28;20060;-65
2021/03/16 10:05:12;;;;;;;1.58;1.10;;;;;;;;;;5066471;28;20099;-67
2021/03/16 10:07:38;;;;;;;0.70;0.60;;;;;;;;;;5078448;28;20036;-65
2021/03/16 10:10:07;;;;;;;2.10;1.23;;;;;;;;;;5065622;28;20483;-65
2021/03/16 10:12:33;;;;;;;2.97;1.23;;;;;;;;;;5078642;28;20028;-65
2021/03/16 10:15:00;;;;;;;1.50;0.85;;;;;;;;;;5071570;28;20040;-64
2021/03/16 10:17:26;;;;;;;1.63;1.52;;;;;;;;;;5067143;28;20032;-64
2021/03/16 10:19:53;;;;;;;1.15;0.90;;;;;;;;;;5069710;28;20136;-65
2021/03/16 10:22:19;;;;;;;0.77;0.77;;;;;;;;;;5066651;28;20811;-65
2021/03/16 10:24:53;;;;;;;1.15;1.10;;;;;;;;;;5075749;28;20127;-66
2021/03/16 10:27:33;;;;;;;1.85;1.13;;;;;;;;;;5071153;28;20064;-65
2021/03/16 10:30:07;;;;;;;0.95;0.95;;;;;;;;;;5075085;28;20067;-65
2021/03/16 10:32:33;;;;;;;0.60;0.60;;;;;;;;;;5068657;28;20071;-65
2021/03/16 10:34:59;;;;;;;2.88;1.05;;;;;;;;;;5070971;28;20029;-64
2021/03/16 10:37:26;;;;;;;2.08;1.17;;;;;;;;;;5066845;28;20046;-65
2021/03/16 10:39:53;;;;;;;2.15;1.33;;;;;;;;;;5072246;28;20070;-65
2021/03/16 10:42:20;;;;;;;1.15;0.75;;;;;;;;;;5072719;28;20443;-65
2021/03/16 10:44:46;;;;;;;2.65;1.30;;;;;;;;;;5077670;28;20024;-65
2021/03/16 10:47:13;;;;;;;1.55;1.20;;;;;;;;;;5076672;28;20020;-66
2021/03/16 10:49:39;;;;;;;1.05;0.90;;;;;;;;;;5071744;28;20038;-65
2021/03/16 10:52:05;;;;;;;1.10;1.05;;;;;;;;;;5065733;28;20021;-64
2021/03/16 10:54:33;;;;;;;1.52;1.35;;;;;;;;;;5077462;28;20093;-64
2021/03/16 10:56:59;;;;;;;5.75;1.50;;;;;;;;;;5078231;28;20070;-64
2021/03/16 10:59:25;;;;;;;1.73;1.20;;;;;;;;;;5071727;28;20048;-65
2021/03/16 11:01:51;;;;;;;4.45;1.67;;;;;;;;;;5071224;28;21890;-65
2021/03/16 11:04:18;;;;;;;3.47;0.95;;;;;;;;;;5073373;28;20094;-64
2021/03/16 11:06:47;;;;;;;2.70;1.20;;;;;;;;;;5072823;28;20028;-64
2021/03/16 11:09:14;;;;;;;2.92;1.00;;;;;;;;;;5072048;28;20044;-65
2021/03/16 11:11:41;;;;;;;1.75;1.20;;;;;;;;;;5072761;28;20475;-65
2021/03/16 11:14:07;;;;;;;1.98;1.50;;;;;;;;;;5072836;28;20100;-65
2021/03/16 11:16:33;;;;;;;1.58;1.20;;;;;;;;;;5077593;28;20055;-65
2021/03/16 11:18:59;;;;;;;4.20;1.05;;;;;;;;;;5075608;28;20040;-65
2021/03/16 11:21:26;;;;;;;1.85;1.45;;;;;;;;;;5080193;28;20031;-65
2021/03/16 11:23:52;;;;;;;2.80;1.30;;;;;;;;;;5070840;28;20036;-65
2021/03/16 11:26:18;;;;;;;3.45;1.35;;;;;;;;;;5070910;28;20048;-65
2021/03/16 11:28:44;;;;;;;5.05;1.58;;;;;;;;;;5074301;28;20031;-65
2021/03/16 11:31:11;;;;;;;2.53;1.25;;;;;;;;;;5080712;28;20024;-65
2021/03/16 11:33:37;;;;;;;1.77;1.33;;;;;;;;;;5077248;28;20021;-65
2021/03/16 11:36:03;;;;;;;5.53;1.63;;;;;;;;;;5071018;28;20086;-65
2021/03/16 11:38:29;;;;;;;1.25;1.05;;;;;;;;;;5074348;28;20725;-65
2021/03/16 11:40:55;;;;;;;1.70;1.60;;;;;;;;;;5074317;28;20033;-65
2021/03/16 11:43:22;;;;;;;1.05;1.02;;;;;;;;;;5079234;28;20603;-65
2021/03/16 11:45:48;;;;;;;3.10;1.20;;;;;;;;;;5081448;28;20402;-65
2021/03/16 11:48:14;;;;;;;3.63;1.40;;;;;;;;;;5077360;28;20021;-65
2021/03/16 11:50:40;;;;;;;1.40;1.30;;;;;;;;;;5070555;28;20035;-65
2021/03/16 11:53:06;;;;;;;2.55;1.50;;;;;;;;;;5068896;28;20036;-65
2021/03/16 11:55:32;;;;;;;3.70;1.33;;;;;;;;;;5071685;28;20028;-65
2021/03/16 11:57:58;;;;;;;3.30;1.85;;;;;;;;;;5080792;28;20032;-65
2021/03/16 12:00:24;;;;;;;1.25;1.15;;;;;;;;;;5077095;28;20112;-65
2021/03/16 12:02:50;;;;;;;2.20;1.40;;;;;;;;;;5076632;28;20487;-65
2021/03/16 12:05:16;;;;;;;2.78;2.10;;;;;;;;;;5067431;28;20036;-65
2021/03/16 12:07:42;;;;;;;2.17;1.17;;;;;;;;;;5068722;28;20057;-66
2021/03/16 12:10:09;;;;;;;2.65;2.13;;;;;;;;;;5072431;28;20033;-66
2021/03/16 12:12:35;;;;;;;1.75;1.65;;;;;;;;;;5076267;28;20043;-66
2021/03/16 12:15:04;;;;;;;2.90;1.88;;;;;;;;;;5073506;28;20031;-66
2021/03/16 12:17:30;;;;;;;3.80;2.38;;;;;;;;;;5072761;28;20047;-66
2021/03/16 12:19:56;;;;;;;2.17;1.52;;;;;;;;;;5074644;28;20024;-67
2021/03/16 12:22:22;;;;;;;1.95;1.38;;;;;;;;;;5072636;28;20077;-66
2021/03/16 12:24:51;;;;;;;3.20;1.23;;;;;;;;;;5079385;28;20040;-70
2021/03/16 12:27:18;;;;;;;4.30;1.33;;;;;;;;;;5073791;28;20044;-66
2021/03/16 12:29:45;;;;;;;2.72;1.83;;;;;;;;;;5076838;28;20067;-66
2021/03/16 12:32:11;;;;;;;5.05;2.25;;;;;;;;;;5074860;28;20035;-66
2021/03/16 12:34:37;;;;;;;2.75;2.40;;;;;;;;;;5071203;28;20055;-66
2021/03/16 12:37:03;;;;;;;4.85;1.65;;;;;;;;;;5068617;28;20032;-66
2021/03/16 12:39:29;;;;;;;4.75;2.08;;;;;;;;;;5069964;28;20044;-65
2021/03/16 12:41:55;;;;;;;5.10;2.28;;;;;;;;;;5084700;28;20024;-66
2021/03/16 12:44:21;;;;;;;2.88;1.90;;;;;;;;;;5084411;28;20232;-66
2021/03/16 12:46:48;;;;;;;8.05;1.95;;;;;;;;;;5079123;28;20440;-67
2021/03/16 12:49:14;;;;;;;2.85;1.60;;;;;;;;;;5087343;28;20044;-68
2021/03/16 12:51:40;;;;;;;4.00;1.30;;;;;;;;;;5086467;28;20039;-66
2021/03/16 12:54:06;;;;;;;2.28;1.98;;;;;;;;;;5080534;28;20027;-66
2021/03/16 12:56:32;;;;;;;6.50;2.10;;;;;;;;;;5086333;28;20486;-66
2021/03/16 12:58:58;;;;;;;2.08;1.75;;;;;;;;;;5085737;28;20158;-66
2021/03/16 13:01:24;;;;;;;4.18;2.13;;;;;;;;;;5088388;28;20644;-66
2021/03/16 13:03:50;;;;;;;5.13;2.35;;;;;;;;;;5089209;28;20040;-66
2021/03/16 13:06:16;;;;;;;2.28;1.42;;;;;;;;;;5088175;28;20437;-68
2021/03/16 13:08:42;;;;;;;2.75;1.80;;;;;;;;;;5088901;28;20051;-66
2021/03/16 13:11:08;;;;;;;3.15;1.58;;;;;;;;;;5086551;28;20020;-66
2021/03/16 13:13:34;;;;;;;4.20;1.80;;;;;;;;;;5076513;28;20443;-67
2021/03/16 13:16:00;;;;;;;4.47;1.90;;;;;;;;;;5077052;28;20209;-66
2021/03/16 13:18:26;;;;;;;2.65;2.42;;;;;;;;;;5083939;28;20032;-66
2021/03/16 13:20:52;;;;;;;6.80;2.35;;;;;;;;;;5076152;28;20136;-66
2021/03/16 13:23:18;;;;;;;3.90;1.65;;;;;;;;;;5076112;28;20158;-68
2021/03/16 13:25:44;;;;;;;3.00;1.90;;;;;;;;;;5075329;28;20039;-66
2021/03/16 13:28:11;;;;;;;5.20;1.67;;;;;;;;;;5079047;28;20036;-67
2021/03/16 13:30:37;;;;;;;3.75;1.98;;;;;;;;;;5084333;28;20028;-66
2021/03/16 13:33:03;;;;;;;8.40;3.13;;;;;;;;;;5079094;28;20024;-66
2021/03/16 13:35:29;;;;;;;3.13;1.55;;;;;;;;;;5087677;28;20028;-66
2021/03/16 13:37:57;;;;;;;4.60;2.22;;;;;;;;;;5087599;28;20043;-67
2021/03/16 13:40:24;;;;;;;3.75;1.95;;;;;;;;;;5069023;28;20040;-67
2021/03/16 13:42:50;;;;;;;4.57;1.67;;;;;;;;;;5074996;28;20036;-66
2021/03/16 13:45:17;;;;;;;5.25;1.75;;;;;;;;;;5086045;28;20028;-66
2021/03/16 13:47:43;;;;;;;6.15;1.92;;;;;;;;;;5086101;28;20027;-66
2021/03/16 13:50:09;;;;;;;6.45;2.05;;;;;;;;;;5088213;28;20572;-66
2021/03/16 13:52:36;;;;;;;3.40;1.70;;;;;;;;;;5089000;28;20028;-66
2021/03/16 13:55:02;;;;;;;3.30;1.60;;;;;;;;;;5087931;28;20032;-66
2021/03/16 13:57:28;;;;;;;6.38;2.08;;;;;;;;;;5075243;28;20028;-66
2021/03/16 13:59:54;;;;;;;9.32;3.38;;;;;;;;;;5083679;28;20044;-66
2021/03/16 14:02:20;;;;;;;3.95;2.15;;;;;;;;;;5061903;28;20799;-71
2021/03/16 14:04:46;;;;;;;2.13;1.92;;;;;;;;;;5070678;28;20091;-67
2021/03/16 14:07:12;;;;;;;4.82;2.55;;;;;;;;;;5077153;28;20028;-66
2021/03/16 14:09:39;;;;;;;3.13;1.42;;;;;;;;;;5068008;28;20036;-66
2021/03/16 14:12:06;;;;;;;4.07;2.33;;;;;;;;;;5068168;28;20024;-66
2021/03/16 14:14:33;;;;;;;4.05;2.00;;;;;;;;;;5074061;28;20033;-66
2021/03/16 14:17:00;;;;;;;3.80;1.60;;;;;;;;;;5076163;28;20452;-66
2021/03/16 14:19:26;;;;;;;3.08;2.28;;;;;;;;;;5070664;28;20056;-66
2021/03/16 14:21:52;;;;;;;3.40;1.77;;;;;;;;;;5087120;28;20043;-66
2021/03/16 14:24:18;;;;;;;4.80;2.08;;;;;;;;;;5087130;28;20043;-66
2021/03/16 14:26:45;;;;;;;3.42;1.40;;;;;;;;;;5089032;28;20060;-66
2021/03/16 14:29:11;;;;;;;2.25;1.52;;;;;;;;;;5084460;28;20028;-66
2021/03/16 14:31:37;;;;;;;4.22;1.95;;;;;;;;;;5087537;28;20032;-66
2021/03/16 14:34:05;;;;;;;3.00;1.20;;;;;;;;;;5086798;28;20050;-66
2021/03/16 14:36:31;;;;;;;2.72;2.00;;;;;;;;;;5068339;28;20161;-66
2021/03/16 14:38:57;;;;;;;3.25;1.35;;;;;;;;;;5068369;28;20117;-66
2021/03/16 14:41:23;;;;;;;1.98;1.50;;;;;;;;;;5067395;28;20157;-66
2021/03/16 14:43:49;;;;;;;2.78;1.88;;;;;;;;;;5062181;28;20055;-66